Time;durP1;ratioP1;P1;durP2;ratioP2;P2;SDS_P1;SDS_P2;PMS_P1;PMS_P2;Temp;Humidity;BMP_temperature;BMP_pressure;BME280_temperature;BME280_humidity;BME280_pressure;Samples;Min_cycle;Max_cycle;Signal;HPM_P1;HPM_P2
2023/08/02 00:01:17;;;;;;;4.63;2.50;;;;;;;;;;5056174;28;20627;-64
2023/08/02 00:03:45;;;;;;;2.00;1.73;;;;;;;;;;5046672;28;20641;-64
2023/08/02 00:06:13;;;;;;;4.40;2.07;;;;;;;;;;5046997;28;20630;-64
2023/08/02 00:08:41;;;;;;;4.67;2.57;;;;;;;;;;5043055;28;20589;-64
2023/08/02 00:11:28;;;;;;;2.37;2.17;;;;;;;;;;5077384;28;20662;-64
2023/08/02 00:13:56;;;;;;;2.20;2.03;;;;;;;;;;5088841;28;20645;-64
2023/08/02 00:16:24;;;;;;;3.93;1.90;;;;;;;;;;5098086;28;20958;-64
2023/08/02 00:18:52;;;;;;;3.93;2.17;;;;;;;;;;5096280;28;20652;-65
2023/08/02 00:21:20;;;;;;;2.17;1.97;;;;;;;;;;5098029;28;20665;-66
2023/08/02 00:23:48;;;;;;;7.57;2.73;;;;;;;;;;5088913;28;20960;-65
2023/08/02 00:26:16;;;;;;;4.07;2.20;;;;;;;;;;5093291;28;21253;-64
2023/08/02 00:28:45;;;;;;;3.50;2.80;;;;;;;;;;5097009;28;20639;-64
2023/08/02 00:31:15;;;;;;;3.97;1.93;;;;;;;;;;5060970;28;20688;-64
2023/08/02 00:33:43;;;;;;;5.20;2.10;;;;;;;;;;5093268;28;20622;-65
2023/08/02 00:36:11;;;;;;;4.63;2.13;;;;;;;;;;5078124;28;20618;-64
2023/08/02 00:38:39;;;;;;;3.63;2.30;;;;;;;;;;5089596;28;20661;-64
2023/08/02 00:41:07;;;;;;;2.63;2.40;;;;;;;;;;5098148;28;20616;-64
2023/08/02 00:43:49;;;;;;;3.60;2.03;;;;;;;;;;5097670;28;20992;-64
2023/08/02 00:46:20;;;;;;;11.13;2.60;;;;;;;;;;5096813;28;20613;-65
2023/08/02 00:48:48;;;;;;;2.63;2.43;;;;;;;;;;5097742;28;20578;-64
2023/08/02 00:51:17;;;;;;;5.20;2.53;;;;;;;;;;5081963;28;20690;-65
2023/08/02 00:53:46;;;;;;;2.93;2.50;;;;;;;;;;5059418;28;21215;-64
2023/08/02 00:56:16;;;;;;;4.27;2.43;;;;;;;;;;5058847;28;20614;-64
2023/08/02 00:58:44;;;;;;;4.77;2.10;;;;;;;;;;5077579;28;20672;-65
2023/08/02 01:01:14;;;;;;;5.20;2.40;;;;;;;;;;5058860;28;20614;-65
2023/08/02 01:03:44;;;;;;;5.07;2.77;;;;;;;;;;5081852;28;20609;-66
2023/08/02 01:06:14;;;;;;;2.77;2.00;;;;;;;;;;5077964;28;20698;-65
2023/08/02 01:08:46;;;;;;;5.13;2.70;;;;;;;;;;5096990;28;20623;-65
2023/08/02 01:11:16;;;;;;;2.60;2.40;;;;;;;;;;5089632;28;20733;-64
2023/08/02 01:13:49;;;;;;;8.00;2.87;;;;;;;;;;5079484;28;21219;-65
2023/08/02 01:16:20;;;;;;;6.10;3.47;;;;;;;;;;5078318;28;20597;-65
2023/08/02 01:18:50;;;;;;;4.17;2.70;;;;;;;;;;5097452;28;20619;-65
2023/08/02 01:21:19;;;;;;;4.70;2.70;;;;;;;;;;5078638;28;20625;-65
2023/08/02 01:23:47;;;;;;;3.23;2.93;;;;;;;;;;5096887;28;20651;-65
2023/08/02 01:26:16;;;;;;;5.77;3.07;;;;;;;;;;5096537;28;20624;-65
2023/08/02 01:28:45;;;;;;;2.13;1.93;;;;;;;;;;5097033;28;20671;-65
2023/08/02 01:31:14;;;;;;;4.70;3.27;;;;;;;;;;5095863;28;20609;-65
2023/08/02 01:33:45;;;;;;;2.47;2.27;;;;;;;;;;5097384;28;20713;-65
2023/08/02 01:36:13;;;;;;;2.63;2.43;;;;;;;;;;5096173;28;20578;-65
2023/08/02 01:38:42;;;;;;;4.53;2.70;;;;;;;;;;5079330;28;20661;-65
2023/08/02 01:41:11;;;;;;;3.37;2.60;;;;;;;;;;5077982;28;21273;-66
2023/08/02 01:43:39;;;;;;;5.33;2.33;;;;;;;;;;5096500;28;20753;-64
2023/08/02 01:46:07;;;;;;;4.50;2.50;;;;;;;;;;5097088;28;20743;-65
2023/08/02 01:48:35;;;;;;;3.53;2.50;;;;;;;;;;5097099;28;20684;-65
2023/08/02 01:51:03;;;;;;;7.73;2.63;;;;;;;;;;5096486;28;20702;-64
2023/08/02 01:53:32;;;;;;;2.33;2.13;;;;;;;;;;5096057;28;21261;-65
2023/08/02 01:56:01;;;;;;;4.10;2.07;;;;;;;;;;5078682;28;20591;-65
2023/08/02 01:58:30;;;;;;;3.10;2.33;;;;;;;;;;5096583;28;20653;-65
2023/08/02 02:00:58;;;;;;;2.90;2.70;;;;;;;;;;5095125;28;20926;-65
2023/08/02 02:03:27;;;;;;;4.67;2.77;;;;;;;;;;5077216;28;20689;-65
2023/08/02 02:05:55;;;;;;;5.60;2.80;;;;;;;;;;5095034;28;20612;-67
2023/08/02 02:08:24;;;;;;;2.57;2.03;;;;;;;;;;5096073;28;20621;-64
2023/08/02 02:10:52;;;;;;;4.87;2.83;;;;;;;;;;5095559;28;20743;-65
2023/08/02 02:13:23;;;;;;;3.70;2.50;;;;;;;;;;5095340;28;20633;-65
2023/08/02 02:15:51;;;;;;;4.40;2.87;;;;;;;;;;5057610;28;20610;-65
2023/08/02 02:18:19;;;;;;;2.97;2.47;;;;;;;;;;5078463;28;20998;-64
2023/08/02 02:20:47;;;;;;;4.50;2.23;;;;;;;;;;5096224;28;20617;-64
2023/08/02 02:23:15;;;;;;;5.73;2.70;;;;;;;;;;5094961;28;20633;-65
2023/08/02 02:25:44;;;;;;;2.90;2.67;;;;;;;;;;5095662;28;20595;-64
2023/08/02 02:28:12;;;;;;;2.67;2.20;;;;;;;;;;5094896;28;20633;-65
2023/08/02 02:30:44;;;;;;;3.10;2.50;;;;;;;;;;5095753;28;20604;-64
2023/08/02 02:33:14;;;;;;;2.60;2.40;;;;;;;;;;5095582;28;20692;-64
2023/08/02 02:35:42;;;;;;;2.30;2.20;;;;;;;;;;5095249;28;21221;-65
2023/08/02 02:38:10;;;;;;;6.70;2.90;;;;;;;;;;5087307;28;20665;-64
2023/08/02 02:40:38;;;;;;;3.90;2.30;;;;;;;;;;5057676;28;20620;-64
2023/08/02 02:43:06;;;;;;;2.63;2.07;;;;;;;;;;5089757;28;20693;-63
2023/08/02 02:45:35;;;;;;;5.33;3.10;;;;;;;;;;5095590;28;20740;-63
2023/08/02 02:48:04;;;;;;;3.40;2.30;;;;;;;;;;5095482;28;20606;-63
2023/08/02 02:50:32;;;;;;;2.43;2.13;;;;;;;;;;5095250;28;20602;-63
2023/08/02 02:53:01;;;;;;;5.57;2.67;;;;;;;;;;5076757;28;20685;-63
2023/08/02 02:55:29;;;;;;;3.80;2.17;;;;;;;;;;5060702;28;21127;-63
2023/08/02 02:57:57;;;;;;;3.03;2.73;;;;;;;;;;5074235;28;21065;-63
2023/08/02 03:00:25;;;;;;;5.53;2.60;;;;;;;;;;5074230;28;21086;-66
2023/08/02 03:02:54;;;;;;;3.30;2.63;;;;;;;;;;5070130;28;20617;-64
2023/08/02 03:05:23;;;;;;;5.03;2.60;;;;;;;;;;5091437;28;20629;-64
2023/08/02 03:07:52;;;;;;;4.10;2.30;;;;;;;;;;5093536;28;21132;-64
2023/08/02 03:10:20;;;;;;;4.90;2.90;;;;;;;;;;5095499;28;20732;-64
2023/08/02 03:12:48;;;;;;;2.40;2.20;;;;;;;;;;5094296;28;20676;-65
2023/08/02 03:15:16;;;;;;;3.70;2.97;;;;;;;;;;5094948;28;20678;-64
2023/08/02 03:17:44;;;;;;;5.97;2.70;;;;;;;;;;5093964;28;20701;-64
2023/08/02 03:20:13;;;;;;;3.17;2.20;;;;;;;;;;5076663;28;20663;-64
2023/08/02 03:22:42;;;;;;;3.60;2.43;;;;;;;;;;5093857;28;21187;-64
2023/08/02 03:25:10;;;;;;;4.07;2.60;;;;;;;;;;5095008;28;20628;-64
2023/08/02 03:27:39;;;;;;;5.43;2.27;;;;;;;;;;5093606;28;20625;-64
2023/08/02 03:30:08;;;;;;;2.53;2.40;;;;;;;;;;5094278;28;21045;-64
2023/08/02 03:32:36;;;;;;;6.73;2.60;;;;;;;;;;5094078;28;20708;-64
2023/08/02 03:35:04;;;;;;;2.50;2.30;;;;;;;;;;5093986;28;20774;-64
2023/08/02 03:37:32;;;;;;;5.10;2.27;;;;;;;;;;5094922;28;20756;-64
2023/08/02 03:40:02;;;;;;;5.03;2.40;;;;;;;;;;5086220;28;20636;-64
2023/08/02 03:42:30;;;;;;;2.70;2.27;;;;;;;;;;5074422;28;20616;-64
2023/08/02 03:44:58;;;;;;;3.13;2.17;;;;;;;;;;5083803;28;20635;-64
2023/08/02 03:47:27;;;;;;;5.23;3.00;;;;;;;;;;5092657;28;20712;-65
2023/08/02 03:49:55;;;;;;;3.23;2.93;;;;;;;;;;5093901;28;20633;-67
2023/08/02 03:52:23;;;;;;;2.90;2.03;;;;;;;;;;5094530;28;20625;-64
2023/08/02 03:54:51;;;;;;;3.87;2.53;;;;;;;;;;5077798;28;20617;-64
2023/08/02 03:57:20;;;;;;;4.43;2.87;;;;;;;;;;5094435;28;20628;-64
2023/08/02 03:59:48;;;;;;;5.57;3.00;;;;;;;;;;5094117;28;21262;-64
2023/08/02 04:02:16;;;;;;;3.93;3.20;;;;;;;;;;5093832;28;20704;-65
2023/08/02 04:04:45;;;;;;;4.60;2.53;;;;;;;;;;5093747;28;20626;-64
2023/08/02 04:07:13;;;;;;;5.20;2.60;;;;;;;;;;5093677;28;20720;-64
2023/08/02 04:09:41;;;;;;;4.63;3.00;;;;;;;;;;5094096;28;20614;-64
2023/08/02 04:12:09;;;;;;;5.73;3.20;;;;;;;;;;5074207;28;20691;-64
2023/08/02 04:14:39;;;;;;;3.90;3.30;;;;;;;;;;5078511;28;20627;-64
2023/08/02 04:17:07;;;;;;;6.13;2.90;;;;;;;;;;5093509;28;20629;-64
2023/08/02 04:19:35;;;;;;;4.77;3.00;;;;;;;;;;5094127;28;20661;-65
2023/08/02 04:22:03;;;;;;;5.20;3.20;;;;;;;;;;5076081;28;20609;-64
2023/08/02 04:24:32;;;;;;;4.47;3.60;;;;;;;;;;5093942;28;20640;-64
2023/08/02 04:27:00;;;;;;;4.40;2.87;;;;;;;;;;5093400;28;20606;-64
2023/08/02 04:29:28;;;;;;;4.17;3.77;;;;;;;;;;5085427;28;20998;-63
2023/08/02 04:31:58;;;;;;;5.40;3.70;;;;;;;;;;5093101;28;20623;-64
2023/08/02 04:34:26;;;;;;;4.03;3.00;;;;;;;;;;5093767;28;20621;-64
2023/08/02 04:36:55;;;;;;;10.23;3.57;;;;;;;;;;5080984;28;20900;-63
2023/08/02 04:39:23;;;;;;;4.43;4.03;;;;;;;;;;5074095;28;20998;-64
2023/08/02 04:41:52;;;;;;;5.23;3.10;;;;;;;;;;5074738;28;20616;-64
2023/08/02 04:44:20;;;;;;;4.90;3.80;;;;;;;;;;5078275;28;20630;-64
2023/08/02 04:46:48;;;;;;;4.37;3.20;;;;;;;;;;5077820;28;20708;-64
2023/08/02 04:49:18;;;;;;;4.17;3.77;;;;;;;;;;5077751;28;20942;-65
2023/08/02 04:51:46;;;;;;;6.10;3.93;;;;;;;;;;5061429;28;20609;-64
2023/08/02 04:54:14;;;;;;;7.20;3.97;;;;;;;;;;5097839;28;20601;-64
2023/08/02 04:56:42;;;;;;;4.60;3.80;;;;;;;;;;5086234;28;20685;-64
2023/08/02 04:59:11;;;;;;;5.77;3.20;;;;;;;;;;5098632;28;20693;-64
2023/08/02 05:01:39;;;;;;;4.53;4.03;;;;;;;;;;5097738;28;20693;-66
2023/08/02 05:04:08;;;;;;;5.93;4.03;;;;;;;;;;5089192;28;20607;-64
2023/08/02 05:06:38;;;;;;;3.73;3.47;;;;;;;;;;5096609;28;20629;-64
2023/08/02 05:09:06;;;;;;;5.07;3.80;;;;;;;;;;5100131;28;20703;-67
2023/08/02 05:11:36;;;;;;;3.40;3.00;;;;;;;;;;5098539;28;20851;-64
2023/08/02 05:14:04;;;;;;;4.17;3.60;;;;;;;;;;5098954;28;20767;-64
2023/08/02 05:16:32;;;;;;;5.37;4.47;;;;;;;;;;5097951;28;20716;-64
2023/08/02 05:19:00;;;;;;;5.23;3.80;;;;;;;;;;5098644;28;20964;-65
2023/08/02 05:21:29;;;;;;;4.17;3.80;;;;;;;;;;5098201;28;20653;-65
2023/08/02 05:23:58;;;;;;;6.20;4.90;;;;;;;;;;5098480;28;20708;-65
2023/08/02 05:26:27;;;;;;;5.60;4.33;;;;;;;;;;5099017;28;20602;-65
2023/08/02 05:28:55;;;;;;;7.57;4.40;;;;;;;;;;5098683;28;20704;-68
2023/08/02 05:31:23;;;;;;;4.30;4.00;;;;;;;;;;5081298;28;20716;-65
2023/08/02 05:33:51;;;;;;;5.00;3.30;;;;;;;;;;5098467;28;20689;-65
2023/08/02 05:36:19;;;;;;;5.70;4.27;;;;;;;;;;5098847;28;21040;-66
2023/08/02 05:38:47;;;;;;;4.97;3.70;;;;;;;;;;5098883;28;21210;-65
2023/08/02 05:41:17;;;;;;;5.30;4.07;;;;;;;;;;5097947;28;21296;-66
2023/08/02 05:43:45;;;;;;;5.57;3.83;;;;;;;;;;5096400;28;20979;-65
2023/08/02 05:46:13;;;;;;;4.27;3.83;;;;;;;;;;5082238;28;20612;-65
2023/08/02 05:48:41;;;;;;;4.60;4.30;;;;;;;;;;5093805;28;20617;-65
2023/08/02 05:51:10;;;;;;;4.57;4.13;;;;;;;;;;5095493;28;21292;-65
2023/08/02 05:53:38;;;;;;;4.07;3.77;;;;;;;;;;5078355;28;20599;-65
2023/08/02 05:56:06;;;;;;;5.40;4.00;;;;;;;;;;5077774;28;20628;-65
2023/08/02 05:58:35;;;;;;;4.10;3.67;;;;;;;;;;5098001;28;20689;-65
2023/08/02 06:01:04;;;;;;;4.00;3.63;;;;;;;;;;5078158;28;20657;-67
2023/08/02 06:03:32;;;;;;;4.17;3.87;;;;;;;;;;5096281;28;20762;-65
2023/08/02 06:06:00;;;;;;;6.47;3.97;;;;;;;;;;5097418;28;20740;-65
2023/08/02 06:08:28;;;;;;;10.13;4.00;;;;;;;;;;5098073;28;20842;-65
2023/08/02 06:10:56;;;;;;;4.40;3.97;;;;;;;;;;5096412;28;20774;-65
2023/08/02 06:13:24;;;;;;;6.27;4.10;;;;;;;;;;5102823;28;20655;-65
2023/08/02 06:15:54;;;;;;;4.43;4.03;;;;;;;;;;5094642;28;20708;-65
2023/08/02 06:18:22;;;;;;;4.70;4.30;;;;;;;;;;5083397;28;20724;-66
2023/08/02 06:20:50;;;;;;;3.83;3.50;;;;;;;;;;5095816;28;20656;-65
2023/08/02 06:23:19;;;;;;;4.07;3.77;;;;;;;;;;5096926;28;20707;-66
2023/08/02 06:25:47;;;;;;;3.77;3.40;;;;;;;;;;5096551;28;20660;-66
2023/08/02 06:28:15;;;;;;;4.43;3.67;;;;;;;;;;5103216;28;20699;-67
2023/08/02 06:30:43;;;;;;;5.27;4.63;;;;;;;;;;5103035;28;20764;-65
2023/08/02 06:33:13;;;;;;;4.33;3.93;;;;;;;;;;5098926;28;20700;-65
2023/08/02 06:35:41;;;;;;;4.00;3.70;;;;;;;;;;5067512;28;20684;-64
2023/08/02 06:38:09;;;;;;;5.30;3.90;;;;;;;;;;5103261;28;20712;-66
2023/08/02 06:40:37;;;;;;;4.37;4.07;;;;;;;;;;5092886;28;20665;-65
2023/08/02 06:43:06;;;;;;;4.73;4.20;;;;;;;;;;5095504;28;20591;-68
2023/08/02 06:45:34;;;;;;;3.63;3.40;;;;;;;;;;5093293;28;20708;-66
2023/08/02 06:48:02;;;;;;;4.73;4.23;;;;;;;;;;5077891;28;21258;-66
2023/08/02 06:50:32;;;;;;;6.17;4.47;;;;;;;;;;5098566;28;20712;-66
2023/08/02 06:53:00;;;;;;;4.00;3.67;;;;;;;;;;5089750;28;20670;-66
2023/08/02 06:55:28;;;;;;;4.37;3.70;;;;;;;;;;5094348;28;20738;-66
2023/08/02 06:57:56;;;;;;;4.93;4.40;;;;;;;;;;5094282;28;20720;-66
2023/08/02 07:00:24;;;;;;;5.10;3.77;;;;;;;;;;5097486;28;20694;-67
2023/08/02 07:02:52;;;;;;;3.93;3.30;;;;;;;;;;5095103;28;20687;-66
2023/08/02 07:05:23;;;;;;;4.37;4.03;;;;;;;;;;5095104;28;20708;-66
2023/08/02 07:07:52;;;;;;;4.20;3.43;;;;;;;;;;5094892;28;20647;-67
2023/08/02 07:10:21;;;;;;;5.20;3.90;;;;;;;;;;5094139;28;21308;-66
2023/08/02 07:12:49;;;;;;;4.30;4.00;;;;;;;;;;5090143;28;21221;-66
2023/08/02 07:15:18;;;;;;;4.53;4.10;;;;;;;;;;5098075;28;20704;-66
2023/08/02 07:17:46;;;;;;;5.57;4.23;;;;;;;;;;5099545;28;20739;-65
2023/08/02 07:20:15;;;;;;;3.00;2.70;;;;;;;;;;5098122;28;20716;-65
2023/08/02 07:22:45;;;;;;;5.53;3.90;;;;;;;;;;5097030;28;20704;-66
2023/08/02 07:25:14;;;;;;;4.70;4.13;;;;;;;;;;5090021;28;21238;-65
2023/08/02 07:27:43;;;;;;;5.40;3.50;;;;;;;;;;5100534;28;20689;-65
2023/08/02 07:30:11;;;;;;;4.23;3.90;;;;;;;;;;5099340;28;21074;-64
2023/08/02 07:32:39;;;;;;;4.20;3.87;;;;;;;;;;5075435;28;20720;-65
2023/08/02 07:35:08;;;;;;;3.83;3.43;;;;;;;;;;5097649;28;20690;-64
2023/08/02 07:37:36;;;;;;;6.20;3.90;;;;;;;;;;5094678;28;20708;-65
2023/08/02 07:40:05;;;;;;;6.67;3.87;;;;;;;;;;5084598;28;20664;-65
2023/08/02 07:42:34;;;;;;;3.73;3.50;;;;;;;;;;5095878;28;20666;-66
2023/08/02 07:45:03;;;;;;;4.03;3.03;;;;;;;;;;5093035;28;20636;-66
2023/08/02 07:47:31;;;;;;;3.50;3.20;;;;;;;;;;5091910;28;20617;-65
2023/08/02 07:50:00;;;;;;;3.60;3.30;;;;;;;;;;5092159;28;20626;-65
2023/08/02 07:52:28;;;;;;;3.73;3.43;;;;;;;;;;5090973;28;21267;-64
2023/08/02 07:54:56;;;;;;;3.70;3.40;;;;;;;;;;5091327;28;20624;-64
2023/08/02 07:57:26;;;;;;;3.70;3.40;;;;;;;;;;5090359;28;20623;-65
2023/08/02 07:59:55;;;;;;;4.30;4.00;;;;;;;;;;5081167;28;20633;-64
2023/08/02 08:02:25;;;;;;;3.80;3.50;;;;;;;;;;5092765;28;20633;-64
2023/08/02 08:04:53;;;;;;;3.90;3.50;;;;;;;;;;5093937;28;21051;-65
2023/08/02 08:07:22;;;;;;;4.80;3.70;;;;;;;;;;5091320;28;21164;-65
2023/08/02 08:09:52;;;;;;;4.27;3.97;;;;;;;;;;5091434;28;20657;-66
2023/08/02 08:12:20;;;;;;;4.83;4.40;;;;;;;;;;5092432;28;20645;-66
2023/08/02 08:14:48;;;;;;;4.90;4.07;;;;;;;;;;5094526;28;20701;-65
2023/08/02 08:17:17;;;;;;;5.07;4.50;;;;;;;;;;5081423;28;20713;-64
2023/08/02 08:19:47;;;;;;;4.60;4.13;;;;;;;;;;5091810;28;20613;-65
2023/08/02 08:22:18;;;;;;;6.00;4.87;;;;;;;;;;5092241;28;20622;-66
2023/08/02 08:24:46;;;;;;;5.07;4.67;;;;;;;;;;5088844;28;20658;-65
2023/08/02 08:27:14;;;;;;;3.80;3.60;;;;;;;;;;5096071;28;21673;-65
2023/08/02 08:29:43;;;;;;;4.60;4.20;;;;;;;;;;5087597;28;20635;-65
2023/08/02 08:32:11;;;;;;;6.10;4.10;;;;;;;;;;5098462;28;20657;-65
2023/08/02 08:34:42;;;;;;;4.80;4.40;;;;;;;;;;5098752;28;20712;-66
2023/08/02 08:37:10;;;;;;;5.33;4.60;;;;;;;;;;5098111;28;20697;-65
2023/08/02 08:39:38;;;;;;;6.57;4.27;;;;;;;;;;5099021;28;20704;-66
2023/08/02 08:42:08;;;;;;;4.60;4.30;;;;;;;;;;5097143;28;20719;-65
2023/08/02 08:44:37;;;;;;;4.57;4.17;;;;;;;;;;5099802;28;20709;-67
2023/08/02 08:47:07;;;;;;;5.13;4.73;;;;;;;;;;5078506;28;20720;-66
2023/08/02 08:49:35;;;;;;;5.10;4.67;;;;;;;;;;5101534;28;20672;-67
2023/08/02 08:52:06;;;;;;;6.23;4.73;;;;;;;;;;5061977;28;20743;-67
2023/08/02 08:54:38;;;;;;;3.67;3.47;;;;;;;;;;5096214;28;20994;-67
2023/08/02 08:57:07;;;;;;;4.77;4.37;;;;;;;;;;5078632;28;20634;-66
2023/08/02 08:59:36;;;;;;;4.50;4.10;;;;;;;;;;5095767;28;20724;-67
2023/08/02 09:02:05;;;;;;;4.67;4.27;;;;;;;;;;5098664;28;20692;-65
2023/08/02 09:04:34;;;;;;;5.93;4.50;;;;;;;;;;5082677;28;20774;-66
2023/08/02 09:07:02;;;;;;;4.57;4.17;;;;;;;;;;5099370;28;20625;-66
2023/08/02 09:09:32;;;;;;;5.87;4.13;;;;;;;;;;5100315;28;20678;-66
2023/08/02 09:12:01;;;;;;;3.67;3.37;;;;;;;;;;5100515;28;20807;-67
2023/08/02 09:14:30;;;;;;;3.93;3.63;;;;;;;;;;5084229;28;20691;-67
2023/08/02 09:16:59;;;;;;;4.80;4.50;;;;;;;;;;5093385;28;21293;-66
2023/08/02 09:19:28;;;;;;;6.10;5.50;;;;;;;;;;5083154;28;20727;-66
2023/08/02 09:22:06;;;;;;;5.43;4.70;;;;;;;;;;5102828;28;21073;-66
2023/08/02 09:24:36;;;;;;;9.53;5.07;;;;;;;;;;5103015;28;20645;-65
2023/08/02 09:27:05;;;;;;;7.30;5.47;;;;;;;;;;5082011;28;20645;-66
2023/08/02 09:29:47;;;;;;;6.17;5.37;;;;;;;;;;5100184;28;20715;-67
2023/08/02 09:32:16;;;;;;;7.57;5.40;;;;;;;;;;5100863;28;20716;-66
2023/08/02 09:34:45;;;;;;;5.17;4.67;;;;;;;;;;5099114;28;20716;-67
2023/08/02 09:37:13;;;;;;;5.10;4.70;;;;;;;;;;5105850;28;20771;-65
2023/08/02 09:39:49;;;;;;;4.90;4.50;;;;;;;;;;5104387;28;20693;-66
2023/08/02 09:42:18;;;;;;;5.17;4.77;;;;;;;;;;5101906;28;20691;-65
2023/08/02 09:44:53;;;;;;;5.77;5.27;;;;;;;;;;5098626;28;20724;-63
2023/08/02 09:47:22;;;;;;;8.40;6.50;;;;;;;;;;5100077;28;20687;-65
2023/08/02 09:50:03;;;;;;;6.47;5.13;;;;;;;;;;5099950;28;20704;-65
2023/08/02 09:52:32;;;;;;;5.80;5.23;;;;;;;;;;5100209;28;20775;-66
2023/08/02 09:55:01;;;;;;;6.17;5.13;;;;;;;;;;5100045;28;21246;-66
2023/08/02 09:57:31;;;;;;;7.60;4.90;;;;;;;;;;5099454;28;20716;-65
2023/08/02 10:00:02;;;;;;;6.07;5.47;;;;;;;;;;5080295;28;20705;-65
2023/08/02 10:02:40;;;;;;;5.80;4.90;;;;;;;;;;5096170;28;20747;-66
2023/08/02 10:05:12;;;;;;;4.80;4.33;;;;;;;;;;5096848;28;20627;-66
2023/08/02 10:07:43;;;;;;;6.90;4.77;;;;;;;;;;5096377;28;20563;-66
2023/08/02 10:10:15;;;;;;;5.40;4.90;;;;;;;;;;5096732;28;20738;-65
2023/08/02 10:12:44;;;;;;;5.53;4.80;;;;;;;;;;5091564;28;20641;-66
2023/08/02 10:15:12;;;;;;;5.47;4.97;;;;;;;;;;5097037;28;21053;-65
2023/08/02 10:17:41;;;;;;;5.03;4.63;;;;;;;;;;5098616;28;20704;-65
2023/08/02 10:20:10;;;;;;;4.90;4.47;;;;;;;;;;5098851;28;20716;-65
2023/08/02 10:22:38;;;;;;;5.20;4.80;;;;;;;;;;5098864;28;20980;-65
2023/08/02 10:25:07;;;;;;;5.10;4.57;;;;;;;;;;5098455;28;20767;-65
2023/08/02 10:27:38;;;;;;;5.87;5.33;;;;;;;;;;5098547;28;20685;-65
2023/08/02 10:30:06;;;;;;;6.00;4.30;;;;;;;;;;5097090;28;20704;-65
2023/08/02 10:32:34;;;;;;;4.80;4.40;;;;;;;;;;5091789;28;20667;-65
2023/08/02 10:35:03;;;;;;;5.87;5.30;;;;;;;;;;5096871;28;20712;-65
2023/08/02 10:37:46;;;;;;;5.83;5.33;;;;;;;;;;5096928;28;21080;-65
2023/08/02 10:40:14;;;;;;;5.03;4.67;;;;;;;;;;5076933;28;20624;-65
2023/08/02 10:42:57;;;;;;;5.77;5.30;;;;;;;;;;5087559;28;21242;-65
2023/08/02 10:45:27;;;;;;;8.80;5.03;;;;;;;;;;5097059;28;20696;-65
2023/08/02 10:48:15;;;;;;;5.53;5.07;;;;;;;;;;5095644;28;21057;-65
2023/08/02 10:50:48;;;;;;;7.47;5.67;;;;;;;;;;5094566;28;21046;-64
2023/08/02 10:53:16;;;;;;;6.23;5.40;;;;;;;;;;5097346;28;20994;-64
2023/08/02 10:56:08;;;;;;;6.17;5.43;;;;;;;;;;5098736;28;20685;-64
2023/08/02 10:58:46;;;;;;;6.07;5.57;;;;;;;;;;5097459;28;20750;-64
2023/08/02 11:01:14;;;;;;;6.10;5.20;;;;;;;;;;5097023;28;20697;-65
2023/08/02 11:03:42;;;;;;;9.03;6.80;;;;;;;;;;5096949;28;20689;-64
2023/08/02 11:06:28;;;;;;;6.53;5.90;;;;;;;;;;5093789;28;21047;-64
2023/08/02 11:09:11;;;;;;;8.20;5.67;;;;;;;;;;5095863;28;20610;-65
2023/08/02 11:11:39;;;;;;;6.07;5.30;;;;;;;;;;5088438;28;20772;-65
2023/08/02 11:14:07;;;;;;;7.83;5.80;;;;;;;;;;5093336;28;20654;-64
2023/08/02 11:16:42;;;;;;;6.50;5.90;;;;;;;;;;5095259;28;21351;-64
2023/08/02 11:19:10;;;;;;;6.73;5.67;;;;;;;;;;5095208;28;20656;-64
2023/08/02 11:21:40;;;;;;;6.80;6.10;;;;;;;;;;5095698;28;20712;-64
2023/08/02 11:24:08;;;;;;;6.57;5.97;;;;;;;;;;5093621;28;21065;-64
2023/08/02 11:26:37;;;;;;;8.20;6.30;;;;;;;;;;5091651;28;20708;-65
2023/08/02 11:29:08;;;;;;;6.80;6.20;;;;;;;;;;5074568;28;20631;-64
2023/08/02 11:31:37;;;;;;;7.27;6.67;;;;;;;;;;5092978;28;20609;-64
2023/08/02 11:34:05;;;;;;;7.30;6.60;;;;;;;;;;5093279;28;21216;-64
2023/08/02 11:36:34;;;;;;;8.93;6.37;;;;;;;;;;5094406;28;20621;-64
2023/08/02 11:39:04;;;;;;;9.20;5.63;;;;;;;;;;5094140;28;20690;-64
2023/08/02 11:41:32;;;;;;;9.37;6.77;;;;;;;;;;5076410;28;20621;-64
2023/08/02 11:44:00;;;;;;;7.23;6.63;;;;;;;;;;5089857;28;22126;-64
2023/08/02 11:46:28;;;;;;;6.33;5.73;;;;;;;;;;5091440;28;20613;-64
2023/08/02 11:49:07;;;;;;;6.80;6.10;;;;;;;;;;5092734;28;20621;-63
2023/08/02 11:51:40;;;;;;;7.20;6.50;;;;;;;;;;5095823;28;20605;-67
2023/08/02 11:54:10;;;;;;;8.77;6.00;;;;;;;;;;5095065;28;20994;-65
2023/08/02 11:56:38;;;;;;;7.47;6.30;;;;;;;;;;5077008;28;20988;-66
2023/08/02 11:59:11;;;;;;;12.23;7.80;;;;;;;;;;5096710;28;20625;-65
2023/08/02 12:01:42;;;;;;;8.60;7.60;;;;;;;;;;5093154;28;21180;-65
2023/08/02 12:04:10;;;;;;;7.90;7.13;;;;;;;;;;5076961;28;20943;-65
2023/08/02 12:06:46;;;;;;;7.73;6.70;;;;;;;;;;5095850;28;20702;-65
2023/08/02 12:09:16;;;;;;;8.07;7.33;;;;;;;;;;5091965;28;20615;-65
2023/08/02 12:11:44;;;;;;;8.73;6.87;;;;;;;;;;5096633;28;20653;-65
2023/08/02 12:14:12;;;;;;;7.43;6.77;;;;;;;;;;5095600;28;20657;-65
2023/08/02 12:16:41;;;;;;;6.23;5.63;;;;;;;;;;5095867;28;20617;-64
2023/08/02 12:19:10;;;;;;;8.20;6.87;;;;;;;;;;5076785;28;20625;-64
2023/08/02 12:21:38;;;;;;;11.67;7.37;;;;;;;;;;5075869;28;20709;-64
2023/08/02 12:24:13;;;;;;;7.80;7.07;;;;;;;;;;5095186;28;20627;-65
2023/08/02 12:26:45;;;;;;;9.50;7.07;;;;;;;;;;5074934;28;21003;-65
2023/08/02 12:29:22;;;;;;;7.23;6.53;;;;;;;;;;5094677;28;20636;-65
2023/08/02 12:31:53;;;;;;;7.40;6.20;;;;;;;;;;5095961;28;20638;-65
2023/08/02 12:34:21;;;;;;;8.10;7.40;;;;;;;;;;5074609;28;20632;-65
2023/08/02 12:36:49;;;;;;;17.23;8.40;;;;;;;;;;5092396;28;20628;-65
2023/08/02 12:39:17;;;;;;;10.17;7.80;;;;;;;;;;5093044;28;20985;-64
2023/08/02 12:41:47;;;;;;;7.70;7.00;;;;;;;;;;5089317;28;20655;-66
2023/08/02 12:44:15;;;;;;;12.20;7.37;;;;;;;;;;5094806;28;20621;-65
2023/08/02 12:46:44;;;;;;;8.60;7.70;;;;;;;;;;5094740;28;20985;-64
2023/08/02 12:49:12;;;;;;;6.07;5.60;;;;;;;;;;5089029;28;21332;-65
2023/08/02 12:51:40;;;;;;;10.33;7.80;;;;;;;;;;5095363;28;20694;-65
2023/08/02 12:54:11;;;;;;;6.73;6.23;;;;;;;;;;5095809;28;21070;-66
2023/08/02 12:56:40;;;;;;;8.13;5.97;;;;;;;;;;5099715;28;20712;-65
2023/08/02 12:59:10;;;;;;;7.80;5.90;;;;;;;;;;5097497;28;20631;-65
2023/08/02 13:01:39;;;;;;;7.63;6.40;;;;;;;;;;5096345;28;20618;-66
2023/08/02 13:04:07;;;;;;;5.20;4.50;;;;;;;;;;5094956;28;20903;-66
2023/08/02 13:06:35;;;;;;;5.60;5.10;;;;;;;;;;5093776;28;21261;-66
2023/08/02 13:09:04;;;;;;;8.00;5.60;;;;;;;;;;5089077;28;21178;-66
2023/08/02 13:11:32;;;;;;;5.87;5.33;;;;;;;;;;5093009;28;20660;-66
2023/08/02 13:14:00;;;;;;;8.03;5.60;;;;;;;;;;5086988;28;20673;-66
2023/08/02 13:16:30;;;;;;;5.37;4.87;;;;;;;;;;5095292;28;21253;-65
2023/08/02 13:19:00;;;;;;;6.37;5.77;;;;;;;;;;5082230;28;20696;-65
2023/08/02 13:21:28;;;;;;;5.53;5.07;;;;;;;;;;5098569;28;20685;-64
2023/08/02 13:23:56;;;;;;;5.83;5.40;;;;;;;;;;5098130;28;20717;-64
2023/08/02 13:26:25;;;;;;;7.47;5.63;;;;;;;;;;5099184;28;20688;-66
2023/08/02 13:28:53;;;;;;;5.97;5.57;;;;;;;;;;5101165;28;20712;-64
2023/08/02 13:31:21;;;;;;;5.23;4.77;;;;;;;;;;5101228;28;20716;-64
2023/08/02 13:33:51;;;;;;;6.07;5.53;;;;;;;;;;5101404;28;20743;-64
2023/08/02 13:36:19;;;;;;;5.40;4.67;;;;;;;;;;5100113;28;20696;-64
2023/08/02 13:38:47;;;;;;;5.33;4.87;;;;;;;;;;5101246;28;21061;-64
2023/08/02 13:41:15;;;;;;;5.53;5.03;;;;;;;;;;5101038;28;20696;-66
2023/08/02 13:43:43;;;;;;;6.13;4.53;;;;;;;;;;5083506;28;20700;-64
2023/08/02 13:46:12;;;;;;;6.00;4.80;;;;;;;;;;5092667;28;20685;-64
2023/08/02 13:48:40;;;;;;;6.60;4.67;;;;;;;;;;5099382;28;20751;-64
2023/08/02 13:51:09;;;;;;;5.73;4.30;;;;;;;;;;5100304;28;20727;-65
2023/08/02 13:53:37;;;;;;;5.10;3.90;;;;;;;;;;5100239;28;20724;-64
2023/08/02 13:56:06;;;;;;;7.17;4.33;;;;;;;;;;5099670;28;20716;-64
2023/08/02 13:58:34;;;;;;;7.47;4.30;;;;;;;;;;5099875;28;20824;-64
2023/08/02 14:01:02;;;;;;;4.33;4.03;;;;;;;;;;5098184;28;20689;-65
2023/08/02 14:03:30;;;;;;;5.03;4.63;;;;;;;;;;5097717;28;20708;-65
2023/08/02 14:06:00;;;;;;;4.27;4.00;;;;;;;;;;5098121;28;20720;-65
2023/08/02 14:08:30;;;;;;;4.43;4.03;;;;;;;;;;5099501;28;20697;-64
2023/08/02 14:10:58;;;;;;;4.37;3.97;;;;;;;;;;5094213;28;20747;-64
2023/08/02 14:13:26;;;;;;;6.90;3.80;;;;;;;;;;5097244;28;20716;-65
2023/08/02 14:15:54;;;;;;;5.03;4.23;;;;;;;;;;5097452;28;20770;-65
2023/08/02 14:18:22;;;;;;;4.00;3.70;;;;;;;;;;5094422;28;20693;-65
2023/08/02 14:20:51;;;;;;;4.47;3.87;;;;;;;;;;5084509;28;20690;-64
2023/08/02 14:23:19;;;;;;;5.30;4.30;;;;;;;;;;5078980;28;21122;-64
2023/08/02 14:25:48;;;;;;;4.07;3.77;;;;;;;;;;5091928;28;21299;-64
2023/08/02 14:28:17;;;;;;;5.40;4.00;;;;;;;;;;5064470;28;20717;-65
2023/08/02 14:30:45;;;;;;;2.90;2.67;;;;;;;;;;5061422;28;20745;-64
2023/08/02 14:33:13;;;;;;;4.77;4.23;;;;;;;;;;5090976;28;20648;-63
2023/08/02 14:35:41;;;;;;;4.93;3.03;;;;;;;;;;5089199;28;20657;-63
2023/08/02 14:38:10;;;;;;;4.20;3.47;;;;;;;;;;5085312;28;21023;-63
2023/08/02 14:40:38;;;;;;;3.90;3.57;;;;;;;;;;5089202;28;20983;-63
2023/08/02 14:43:09;;;;;;;4.40;4.00;;;;;;;;;;5092750;28;20644;-63
2023/08/02 14:45:37;;;;;;;4.93;4.50;;;;;;;;;;5093022;28;20627;-63
2023/08/02 14:48:06;;;;;;;6.30;4.00;;;;;;;;;;5092615;28;20678;-63
2023/08/02 14:50:34;;;;;;;4.73;4.33;;;;;;;;;;5083691;28;20622;-63
2023/08/02 14:53:02;;;;;;;4.80;4.23;;;;;;;;;;5085099;28;21251;-63
2023/08/02 14:55:30;;;;;;;4.90;4.33;;;;;;;;;;5092049;28;20653;-66